Terminal Aerodrome Forecast
Issued by NWS Missoula, MT

Home | Current Version | Previous Version | Text Only | Print | Product List | Glossary On
Versions: 1 2 3 4 5 6 7 8 9 10 11 12 13 14
000
FTUS45 KMSO 211137
TAFGPI
TAF
KGPI 211137Z 2112/2212 20007KT P6SM BKN040 OVC100
     FM212100 19011KT P6SM VCSH OVC040
     FM220200 18007KT P6SM -RA OVC035=

USA.gov is the U.S. government's official web portal to all federal, state and local government web resources and services.